Leo Leader — 3FQK9 — position and weather

sailwx.info

Track history (hours):
 
Tides and Currents Weather Stations Pressure Air Temp Water Temp Dewpoint Dewpoint Depression Visibility Wind Speed Wind Dir Waves Ship Positions

Leo Leader

Last reported at 2017-Nov-24 20:13 UTC. Time now 2017-Nov-24 23:51 UTC.
Position N 35°58' W 005°34'.

Length 200 m; draft 7.7 m.

Type: Cargo ship. MMSI: 357682000.

Date/timePositionNaut miles runAvg speedWind from/ knotsBaromVisibWave heightAir tempDewpointWater temp
2017-Nov-24 20:13N 35°58' W 005°34'316.5
2017-Nov-24 20:00N 35°59' W 005°31'816.2
2017-Nov-24 19:30N 36°00' W 005°20'19717.1
2017-Nov-24 07:57N 36°58' W 001°26'2217.9
2017-Nov-24 06:44N 37°12' W 001°05'417.5
2017-Nov-24 06:30N 37°14' W 001°01'917.3
2017-Nov-24 06:00N 37°20' W 000°53'917.1
2017-Nov-24 05:30N 37°26' W 000°45'916.9
2017-Nov-24 05:00N 37°32' W 000°37'817.0
2017-Nov-24 04:30N 37°38' W 000°31'817.0
2017-Nov-24 04:00N 37°45' W 000°25'816.9
2017-Nov-24 03:30N 37°52' W 000°19'917.0
2017-Nov-24 03:00N 37°60' W 000°13'917.1
2017-Nov-24 02:30N 38°07' W 000°07'816.9
2017-Nov-24 02:00N 38°14' W 000°01'816.9
2017-Nov-24 01:30N 38°21' E 000°05'1116.9
2017-Nov-24 00:52N 38°30' E 000°13'716.9
2017-Nov-24 00:28N 38°35' E 000°18'1216.9
2017-Nov-23 23:47N 38°46' E 000°24'96 3.5
2017-Nov-22 20:28N 39°06' E 002°24'816.1
2017-Nov-22 20:00N 39°03' E 002°33'  
Track history (hours):
 
Tides and Currents Weather Stations Pressure Air Temp Water Temp Dewpoint Dewpoint Depression Visibility Wind Speed Wind Dir Waves Ship Positions

Leo Leader

Last reported at 2017-Nov-24 20:13 UTC. Time now 2017-Nov-24 23:51 UTC.
Position N 35°58' W 005°34'.

Length 200 m; draft 7.7 m.

Type: Cargo ship. MMSI: 357682000.

Date/timePositionNaut miles runAvg speedWind from/ knotsBaromVisibWave heightAir tempDewpointWater temp
2017-Nov-24 20:13N 35°58' W 005°34'316.5
2017-Nov-24 20:00N 35°59' W 005°31'816.2
2017-Nov-24 19:30N 36°00' W 005°20'19717.1
2017-Nov-24 07:57N 36°58' W 001°26'2217.9
2017-Nov-24 06:44N 37°12' W 001°05'417.5
2017-Nov-24 06:30N 37°14' W 001°01'917.3
2017-Nov-24 06:00N 37°20' W 000°53'917.1
2017-Nov-24 05:30N 37°26' W 000°45'916.9
2017-Nov-24 05:00N 37°32' W 000°37'817.0
2017-Nov-24 04:30N 37°38' W 000°31'817.0
2017-Nov-24 04:00N 37°45' W 000°25'816.9
2017-Nov-24 03:30N 37°52' W 000°19'917.0
2017-Nov-24 03:00N 37°60' W 000°13'917.1
2017-Nov-24 02:30N 38°07' W 000°07'816.9
2017-Nov-24 02:00N 38°14' W 000°01'816.9
2017-Nov-24 01:30N 38°21' E 000°05'1116.9
2017-Nov-24 00:52N 38°30' E 000°13'716.9
2017-Nov-24 00:28N 38°35' E 000°18'1216.9
2017-Nov-23 23:47N 38°46' E 000°24'96 3.5
2017-Nov-22 20:28N 39°06' E 002°24'816.1
2017-Nov-22 20:00N 39°03' E 002°33'  

Dump ship's entire track history